Time;durP1;ratioP1;P1;durP2;ratioP2;P2;SDS_P1;SDS_P2;PMS_P1;PMS_P2;Temp;Humidity;BMP_temperature;BMP_pressure;BME280_temperature;BME280_humidity;BME280_pressure;Samples;Min_cycle;Max_cycle;Signal;HPM_P1;HPM_P2
2023/02/02 00:01:26;;;;;;;;;;;;;;;3.61;85.84;99774.35;105311;1286;67453;-81
2023/02/02 00:04:17;;;;;;;;;;;;;;;3.61;85.78;99776.73;105472;1285;71389;-80
2023/02/02 00:07:04;;;;;;;;;;;;;;;3.62;85.83;99770.26;105359;1285;61998;-80
2023/02/02 00:09:50;;;;;;;;;;;;;;;3.60;85.79;99771.45;105431;1287;61832;-80
2023/02/02 00:12:36;;;;;;;;;;;;;;;3.60;85.81;99767.02;105427;1285;75446;-81
2023/02/02 00:15:23;;;;;;;;;;;;;;;3.61;85.81;99763.10;105603;1285;67274;-81
2023/02/02 00:18:09;;;;;;;;;;;;;;;3.61;85.80;99758.83;105514;1285;71330;-80
2023/02/02 00:20:55;;;;;;;;;;;;;;;3.62;85.72;99757.48;105452;1285;61844;-80
2023/02/02 00:23:41;;;;;;;;;;;;;;;3.62;85.77;99759.17;105474;1285;60201;-80
2023/02/02 00:26:27;;;;;;;;;;;;;;;3.63;85.79;99753.55;105560;1285;74211;-80
2023/02/02 00:29:20;;;;;;;;;;;;;;;3.62;85.72;99752.36;105417;1285;67275;-81
2023/02/02 00:32:06;;;;;;;;;;;;;;;3.62;85.75;99754.23;105398;1285;70299;-80
2023/02/02 00:34:53;;;;;;;;;;;;;;;3.63;85.80;99749.80;105507;1285;61968;-80
2023/02/02 00:37:39;;;;;;;;;;;;;;;3.63;85.76;99750.98;105394;1285;62096;-81
2023/02/02 00:40:26;;;;;;;;;;;;;;;3.62;85.83;99744.35;105266;1285;74006;-81
2023/02/02 00:43:12;;;;;;;;;;;;;;;3.62;85.84;99746.05;105622;1284;67465;-80
2023/02/02 00:45:58;;;;;;;;;;;;;;;3.61;85.85;99735.48;105403;1285;71555;-81
2023/02/02 00:48:44;;;;;;;;;;;;;;;3.61;85.86;99734.30;105424;1285;62106;-80
2023/02/02 00:51:30;;;;;;;;;;;;;;;3.60;85.85;99731.58;105534;1289;61938;-81
2023/02/02 00:54:16;;;;;;;;;;;;;;;3.59;85.82;99724.92;105575;1285;74807;-80
2023/02/02 00:57:02;;;;;;;;;;;;;;;3.59;85.82;99721.02;105487;1289;67245;-81
2023/02/02 00:59:48;;;;;;;;;;;;;;;3.59;85.83;99713.34;105429;1285;72597;-81
2023/02/02 01:02:35;;;;;;;;;;;;;;;3.59;85.84;99714.54;105556;1284;62209;-80
2023/02/02 01:05:21;;;;;;;;;;;;;;;3.59;85.86;99709.08;105598;1285;59500;-81
2023/02/02 01:08:08;;;;;;;;;;;;;;;3.60;85.85;99708.58;105419;1285;73009;-81
2023/02/02 01:10:57;;;;;;;;;;;;;;;3.61;85.80;99700.39;105576;1285;67302;-81
2023/02/02 01:13:43;;;;;;;;;;;;;;;3.62;85.81;99694.59;105591;1285;72424;-81
2023/02/02 01:16:29;;;;;;;;;;;;;;;3.62;85.78;99693.40;105429;1285;61992;-81
2023/02/02 01:19:16;;;;;;;;;;;;;;;3.62;85.76;99679.94;105378;1286;60379;-80
2023/02/02 01:22:02;;;;;;;;;;;;;;;3.62;85.74;99677.04;105601;1285;74118;-80
2023/02/02 01:24:48;;;;;;;;;;;;;;;3.63;85.80;99672.60;105455;1285;67173;-81
2023/02/02 01:27:34;;;;;;;;;;;;;;;3.63;85.76;99670.23;105440;1285;71205;-80
2023/02/02 01:30:21;;;;;;;;;;;;;;;3.62;85.74;99666.65;105398;1287;62075;-80
2023/02/02 01:33:07;;;;;;;;;;;;;;;3.64;85.80;99659.80;105602;1285;62533;-80
2023/02/02 01:35:54;;;;;;;;;;;;;;;3.64;85.76;99648.89;105351;1285;74125;-81
2023/02/02 01:38:41;;;;;;;;;;;;;;;3.64;85.75;99644.79;105592;1284;67198;-81
2023/02/02 01:41:27;;;;;;;;;;;;;;;3.65;85.75;99643.09;105495;1285;74051;-81
2023/02/02 01:44:32;;;;;;;;;;;;;;;3.65;85.75;99642.06;105710;1285;60038;-81
2023/02/02 01:47:20;;;;;;;;;;;;;;;3.66;85.73;99632.86;105652;1284;61842;-81
2023/02/02 01:50:08;;;;;;;;;;;;;;;3.67;85.74;99631.15;105560;1285;76782;-81
2023/02/02 01:52:55;;;;;;;;;;;;;;;3.67;85.64;99621.95;105540;1284;67277;-81
2023/02/02 01:55:42;;;;;;;;;;;;;;;3.67;85.67;99619.89;105467;1285;74043;-81
2023/02/02 01:58:30;;;;;;;;;;;;;;;3.68;85.67;99610.70;105491;1285;62003;-80
2023/02/02 02:01:16;;;;;;;;;;;;;;;3.68;85.63;99607.80;105547;1284;62069;-80
2023/02/02 02:04:02;;;;;;;;;;;;;;;3.68;85.67;99602.16;105470;1285;73506;-80
2023/02/02 02:06:52;;;;;;;;;;;;;;;3.69;85.61;99595.17;105687;1285;70119;-82
2023/02/02 02:09:38;;;;;;;;;;;;;;;3.70;85.62;99587.00;105613;1284;71467;-81
2023/02/02 02:12:24;;;;;;;;;;;;;;;3.68;85.68;99586.50;105400;1286;61963;-80
2023/02/02 02:18:24;;;;;;;;;;;;;;;3.68;85.73;99576.10;105674;1285;73192;-81
2023/02/02 02:28:07;;;;;;;;;;;;;;;3.59;85.78;99558.11;105670;1284;60091;-81
2023/02/02 02:31:12;;;;;;;;;;;;;;;3.57;85.81;99548.75;105707;1285;61978;-80
2023/02/02 02:34:17;;;;;;;;;;;;;;;3.53;85.80;99548.26;105739;1284;79763;-80
2023/02/02 02:37:22;;;;;;;;;;;;;;;3.48;85.76;99532.43;105508;1285;68432;-80
2023/02/02 02:40:09;;;;;;;;;;;;;;;3.42;85.81;99525.82;105686;1285;71316;-81
2023/02/02 02:42:57;;;;;;;;;;;;;;;3.36;85.79;99518.69;105726;1285;61865;-82
2023/02/02 02:45:43;;;;;;;;;;;;;;;3.29;85.78;99505.59;105567;1285;62058;-80
2023/02/02 02:48:29;;;;;;;;;;;;;;;3.24;85.81;99495.58;105563;1290;75268;-80
2023/02/02 02:51:34;;;;;;;;;;;;;;;3.20;85.86;99488.45;105150;1285;337827;-81
2023/02/02 02:54:24;;;;;;;;;;;;;;;3.15;85.91;99492.71;105658;1284;71646;-80
2023/02/02 02:57:40;;;;;;;;;;;;;;;3.12;85.92;99486.27;105530;1285;61499;-80
2023/02/02 03:00:47;;;;;;;;;;;;;;;3.10;85.97;99479.66;104810;1293;61988;-80
2023/02/02 03:03:36;;;;;;;;;;;;;;;3.10;85.97;99479.32;104841;1293;73993;-80
2023/02/02 03:06:25;;;;;;;;;;;;;;;3.08;86.04;99473.54;104800;1294;68995;-81
2023/02/02 03:09:14;;;;;;;;;;;;;;;3.07;86.03;99472.35;104805;1293;71177;-81
2023/02/02 03:12:01;;;;;;;;;;;;;;;3.07;86.06;99469.97;104796;1293;62041;-80
2023/02/02 03:14:47;;;;;;;;;;;;;;;3.07;86.07;99465.37;104761;1296;62178;-80
2023/02/02 03:17:33;;;;;;;;;;;;;;;3.08;86.09;99460.59;104853;1293;74076;-81
2023/02/02 03:20:19;;;;;;;;;;;;;;;3.09;86.21;99461.45;104779;1293;67197;-82
2023/02/02 03:23:05;;;;;;;;;;;;;;;3.10;86.19;99464.85;104807;1292;71407;-81
2023/02/02 03:25:52;;;;;;;;;;;;;;;3.11;86.18;99460.06;104769;1298;62156;-81
2023/02/02 03:28:38;;;;;;;;;;;;;;;3.11;86.19;99463.14;104897;1292;59916;-81
2023/02/02 03:31:25;;;;;;;;;;;;;;;3.12;86.22;99460.40;104809;1292;76000;-81
2023/02/02 03:34:12;;;;;;;;;;;;;;;3.14;86.21;99455.95;104851;1293;67511;-81
2023/02/02 03:36:58;;;;;;;;;;;;;;;3.13;86.32;99460.54;105220;1285;71294;-81
2023/02/02 03:39:44;;;;;;;;;;;;;;;3.13;86.40;99454.08;105477;1285;59673;-81
2023/02/02 03:42:30;;;;;;;;;;;;;;;3.12;86.36;99454.42;105710;1284;60673;-81
2023/02/02 03:45:16;;;;;;;;;;;;;;;3.12;86.37;99453.23;105551;1285;74424;-81
2023/02/02 03:48:04;;;;;;;;;;;;;;;3.13;86.38;99453.05;105493;1285;68071;-81
2023/02/02 03:50:50;;;;;;;;;;;;;;;3.15;86.55;99453.21;106559;1285;72547;-81
2023/02/02 03:53:36;;;;;;;;;;;;;;;3.15;86.55;99442.15;105942;1284;61932;-81
2023/02/02 03:56:22;;;;;;;;;;;;;;;3.16;86.68;99453.71;105510;1285;61894;-81
2023/02/02 03:59:08;;;;;;;;;;;;;;;3.17;86.72;99445.20;105468;1285;74580;-81
2023/02/02 04:01:55;;;;;;;;;;;;;;;3.18;86.69;99448.27;105736;1285;67383;-81
2023/02/02 04:04:41;;;;;;;;;;;;;;;3.19;86.75;99446.39;105458;1283;71284;-81
2023/02/02 04:07:27;;;;;;;;;;;;;;;3.21;86.74;99447.23;105728;1284;61888;-81
2023/02/02 04:10:13;;;;;;;;;;;;;;;3.22;86.64;99447.40;105633;1285;61890;-81
2023/02/02 04:12:59;;;;;;;;;;;;;;;3.24;86.66;99448.06;105539;1285;74174;-81
2023/02/02 04:15:45;;;;;;;;;;;;;;;3.24;86.67;99440.73;105536;1285;67571;-81
2023/02/02 04:18:31;;;;;;;;;;;;;;;3.25;86.68;99443.80;105559;1285;72315;-81
2023/02/02 04:21:17;;;;;;;;;;;;;;;3.26;86.65;99448.90;105531;1285;61830;-81
2023/02/02 04:24:04;;;;;;;;;;;;;;;3.27;86.65;99448.73;105649;1284;62149;-81
2023/02/02 04:26:50;;;;;;;;;;;;;;;3.29;86.71;99456.72;105696;1285;74870;-81
2023/02/02 04:29:36;;;;;;;;;;;;;;;3.30;86.64;99464.55;102079;1285;5166656;-82
2023/02/02 04:32:23;;;;;;;;;;;;;;;3.32;86.75;99471.86;105417;1285;71431;-82
2023/02/02 04:35:09;;;;;;;;;;;;;;;3.32;86.72;99472.55;105625;1285;61949;-81
2023/02/02 04:37:55;;;;;;;;;;;;;;;3.32;86.79;99482.60;105722;1284;62102;-81
2023/02/02 04:40:42;;;;;;;;;;;;;;;3.31;86.73;99491.11;105440;1285;76739;-81
2023/02/02 04:43:28;;;;;;;;;;;;;;;3.30;86.89;99497.77;105503;1284;69961;-81
2023/02/02 04:46:15;;;;;;;;;;;;;;;3.30;86.85;99502.19;105682;1284;72181;-82
2023/02/02 04:49:01;;;;;;;;;;;;;;;3.30;86.93;99507.64;105572;1285;62089;-81
2023/02/02 04:51:47;;;;;;;;;;;;;;;3.31;86.87;99512.91;105641;1285;61804;-81
2023/02/02 04:54:33;;;;;;;;;;;;;;;3.33;86.90;99522.96;105733;1284;74055;-81
2023/02/02 04:57:19;;;;;;;;;;;;;;;3.32;86.90;99529.60;105738;1288;67268;-81
2023/02/02 05:00:05;;;;;;;;;;;;;;;3.35;86.88;99535.05;105577;1287;73578;-81
2023/02/02 05:02:51;;;;;;;;;;;;;;;3.36;86.90;99546.79;105469;1285;62011;-81
2023/02/02 05:05:37;;;;;;;;;;;;;;;3.37;86.84;99545.94;105537;1285;60080;-81
2023/02/02 05:08:23;;;;;;;;;;;;;;;3.38;86.91;99561.27;105559;1284;74141;-80
2023/02/02 05:11:11;;;;;;;;;;;;;;;3.39;86.84;99567.23;105656;1284;68534;-81
2023/02/02 05:13:57;;;;;;;;;;;;;;;3.39;86.85;99574.89;105512;1290;75888;-81
2023/02/02 05:16:43;;;;;;;;;;;;;;;3.40;86.87;99585.45;105678;1285;62052;-81
2023/02/02 05:19:29;;;;;;;;;;;;;;;3.41;86.89;99588.34;105676;1284;61977;-81
2023/02/02 05:22:15;;;;;;;;;;;;;;;3.40;86.86;99597.54;105664;1285;74412;-81
2023/02/02 05:25:01;;;;;;;;;;;;;;;3.42;87.05;99608.95;105621;1285;69448;-82
2023/02/02 05:27:48;;;;;;;;;;;;;;;3.42;87.03;99614.06;105704;1285;75527;-81
2023/02/02 05:30:34;;;;;;;;;;;;;;;3.43;86.99;99624.11;105695;1285;62958;-81
2023/02/02 05:33:20;;;;;;;;;;;;;;;3.43;86.96;99630.41;105647;1285;60758;-81
2023/02/02 05:36:06;;;;;;;;;;;;;;;3.44;86.96;99634.84;105673;1285;73899;-81
2023/02/02 05:38:52;;;;;;;;;;;;;;;3.44;86.97;99635.52;105713;1285;67706;-81
2023/02/02 05:41:38;;;;;;;;;;;;;;;3.44;87.05;99645.58;105431;1285;77077;-81
2023/02/02 05:44:24;;;;;;;;;;;;;;;3.44;87.01;99644.71;105660;1284;60541;-81
2023/02/02 05:47:10;;;;;;;;;;;;;;;3.44;87.01;99658.34;105612;1285;61922;-82
2023/02/02 05:49:56;;;;;;;;;;;;;;;3.45;87.03;99659.87;105549;1285;73945;-81
2023/02/02 05:52:44;;;;;;;;;;;;;;;3.45;86.98;99673.67;105709;1285;68379;-81
2023/02/02 05:55:30;;;;;;;;;;;;;;;3.46;87.06;99682.36;105649;1285;70706;-81
2023/02/02 05:58:16;;;;;;;;;;;;;;;3.46;87.07;99692.41;105653;1285;61930;-81
2023/02/02 06:01:02;;;;;;;;;;;;;;;3.47;87.04;99693.95;105570;1285;61996;-82
2023/02/02 06:03:48;;;;;;;;;;;;;;;3.47;87.03;99712.01;105595;1285;74059;-81
2023/02/02 06:06:34;;;;;;;;;;;;;;;3.48;87.06;99717.28;105528;1285;66252;-81
2023/02/02 06:09:22;;;;;;;;;;;;;;;3.48;87.03;99723.25;105655;1284;70389;-81
2023/02/02 06:12:08;;;;;;;;;;;;;;;3.47;87.01;99733.13;105730;1284;62062;-81
2023/02/02 06:14:55;;;;;;;;;;;;;;;3.47;87.01;99750.34;105703;1285;60103;-81
2023/02/02 06:17:41;;;;;;;;;;;;;;;3.47;87.02;99757.84;105644;1284;74186;-81
2023/02/02 06:20:28;;;;;;;;;;;;;;;3.46;87.11;99768.23;105538;1285;67432;-81
2023/02/02 06:23:14;;;;;;;;;;;;;;;3.45;87.16;99769.25;105379;1285;71276;-81
2023/02/02 06:26:02;;;;;;;;;;;;;;;3.46;87.18;99786.45;105533;1284;64329;-81
2023/02/02 06:28:50;;;;;;;;;;;;;;;3.46;87.07;99790.71;105240;1285;61990;-81
2023/02/02 06:31:36;;;;;;;;;;;;;;;3.45;87.10;99794.80;105485;1285;74800;-81
2023/02/02 06:34:22;;;;;;;;;;;;;;;3.44;87.10;99805.36;105605;1285;70157;-81
2023/02/02 06:37:08;;;;;;;;;;;;;;;3.44;87.14;99810.14;105591;1284;72090;-81
2023/02/02 06:39:54;;;;;;;;;;;;;;;3.44;87.11;99817.64;105702;1285;61831;-80
2023/02/02 06:42:40;;;;;;;;;;;;;;;3.43;87.06;99826.15;105625;1285;62907;-80
2023/02/02 06:45:28;;;;;;;;;;;;;;;3.43;87.08;99833.83;105634;1285;75508;-81
2023/02/02 06:48:14;;;;;;;;;;;;;;;3.42;87.12;99838.77;105506;1285;69648;-81
2023/02/02 06:51:00;;;;;;;;;;;;;;;3.41;87.16;99853.41;105633;1285;71275;-81
2023/02/02 06:53:48;;;;;;;;;;;;;;;3.41;87.15;99859.03;105447;1290;62095;-81
2023/02/02 06:56:34;;;;;;;;;;;;;;;3.40;87.13;99866.36;105699;1285;62081;-81
2023/02/02 06:59:20;;;;;;;;;;;;;;;3.40;87.08;99874.70;105423;1285;74045;-81
2023/02/02 07:02:10;;;;;;;;;;;;;;;3.40;87.14;99880.50;105658;1288;67302;-81
2023/02/02 07:04:56;;;;;;;;;;;;;;;3.39;87.12;99891.91;105709;1285;72571;-81
2023/02/02 07:07:43;;;;;;;;;;;;;;;3.40;87.10;99900.26;105516;1285;62134;-81
2023/02/02 07:10:29;;;;;;;;;;;;;;;3.38;87.14;99904.67;105673;1285;61871;-81
2023/02/02 07:13:15;;;;;;;;;;;;;;;3.39;87.11;99911.16;105482;1285;75172;-81
2023/02/02 07:16:02;;;;;;;;;;;;;;;3.38;87.09;99918.14;105525;1285;67337;-81
2023/02/02 07:18:48;;;;;;;;;;;;;;;3.38;87.11;99924.61;105619;1285;71186;-81
2023/02/02 07:21:35;;;;;;;;;;;;;;;3.40;87.09;99926.83;105656;1285;59927;-81
2023/02/02 07:24:21;;;;;;;;;;;;;;;3.40;87.11;99927.52;105701;1284;62035;-81
2023/02/02 07:27:07;;;;;;;;;;;;;;;3.41;87.05;99941.65;105636;1285;75835;-81
2023/02/02 07:29:53;;;;;;;;;;;;;;;3.43;87.08;99945.41;105682;1284;67296;-81
2023/02/02 07:32:39;;;;;;;;;;;;;;;3.43;87.08;99955.81;105446;1285;71232;-81
2023/02/02 07:35:25;;;;;;;;;;;;;;;3.43;87.16;99957.84;105612;1285;62332;-81
2023/02/02 07:38:11;;;;;;;;;;;;;;;3.43;87.08;99971.31;105498;1285;59480;-81
2023/02/02 07:41:00;;;;;;;;;;;;;;;3.44;87.06;99979.15;105640;1285;74039;-81
2023/02/02 07:43:47;;;;;;;;;;;;;;;3.44;87.03;99983.91;105644;1284;66963;-81
2023/02/02 07:46:33;;;;;;;;;;;;;;;3.44;87.07;99995.33;105534;1285;71345;-81
2023/02/02 07:49:19;;;;;;;;;;;;;;;3.45;87.08;100002.31;105463;1285;62173;-81
2023/02/02 07:52:05;;;;;;;;;;;;;;;3.45;87.06;100008.28;105504;1285;59851;-81
2023/02/02 07:54:52;;;;;;;;;;;;;;;3.45;87.04;100022.59;105645;1285;74992;-81
2023/02/02 07:57:38;;;;;;;;;;;;;;;3.45;87.08;100026.17;105630;1288;67407;-81
2023/02/02 08:00:30;;;;;;;;;;;;;;;3.44;87.10;100038.95;105626;1285;73294;-81
2023/02/02 08:03:16;;;;;;;;;;;;;;;3.43;87.05;100046.10;105636;1285;62149;-81
2023/02/02 08:06:08;;;;;;;;;;;;;;;3.41;87.03;100053.92;105668;1285;59369;-80
2023/02/02 08:08:54;;;;;;;;;;;;;;;3.40;87.13;100057.84;105573;1285;74372;-81
2023/02/02 08:11:40;;;;;;;;;;;;;;;3.38;87.10;100059.54;105475;1285;70013;-81
2023/02/02 08:14:28;;;;;;;;;;;;;;;3.36;87.06;100071.45;105544;1285;76887;-81
2023/02/02 08:17:13;;;;;;;;;;;;;;;3.35;87.13;100079.12;105607;1285;62057;-81
2023/02/02 08:20:00;;;;;;;;;;;;;;;3.35;87.13;100088.65;105465;1285;61976;-81
2023/02/02 08:22:46;;;;;;;;;;;;;;;3.35;87.20;100094.10;105453;1285;75248;-81
2023/02/02 08:25:32;;;;;;;;;;;;;;;3.36;87.20;100100.92;105621;1285;66414;-81
2023/02/02 08:28:18;;;;;;;;;;;;;;;3.38;87.27;100103.83;105640;1285;71373;-81
2023/02/02 08:31:10;;;;;;;;;;;;;;;3.40;87.22;100109.45;105432;1290;61985;-81
2023/02/02 08:33:57;;;;;;;;;;;;;;;3.42;87.23;100118.33;105675;1285;62204;-81
2023/02/02 08:36:43;;;;;;;;;;;;;;;3.45;87.18;100122.77;105430;1285;76495;-81
2023/02/02 08:39:29;;;;;;;;;;;;;;;3.46;87.16;100129.42;105645;1285;69966;-81
2023/02/02 08:42:15;;;;;;;;;;;;;;;3.47;87.22;100140.00;105652;1285;73896;-81
2023/02/02 08:45:01;;;;;;;;;;;;;;;3.52;87.24;100147.69;105610;1288;61968;-81
2023/02/02 08:47:47;;;;;;;;;;;;;;;3.55;87.27;100161.52;105672;1288;61964;-81
2023/02/02 08:50:34;;;;;;;;;;;;;;;3.56;87.22;100162.54;105420;1285;74669;-81
2023/02/02 08:53:20;;;;;;;;;;;;;;;3.59;87.29;100169.20;105488;1284;67419;-81
2023/02/02 08:56:09;;;;;;;;;;;;;;;3.62;87.27;100183.02;105467;1285;71453;-82
2023/02/02 08:59:01;;;;;;;;;;;;;;;3.64;87.20;100187.27;105464;1285;61887;-81
2023/02/02 09:01:48;;;;;;;;;;;;;;;3.65;87.22;100196.12;105733;1284;60033;-81
2023/02/02 09:04:34;;;;;;;;;;;;;;;3.66;87.24;100202.27;105472;1285;75063;-81
2023/02/02 09:07:20;;;;;;;;;;;;;;;3.67;87.19;100209.10;105457;1285;67327;-81
2023/02/02 09:10:06;;;;;;;;;;;;;;;3.68;87.25;100218.64;105567;1283;72260;-81
2023/02/02 09:12:52;;;;;;;;;;;;;;;3.70;87.24;100219.85;105584;1285;62179;-81
2023/02/02 09:15:38;;;;;;;;;;;;;;;3.75;87.37;100229.59;105492;1285;61920;-81
2023/02/02 09:18:24;;;;;;;;;;;;;;;3.78;87.30;100234.38;105622;1285;74099;-81
2023/02/02 09:21:12;;;;;;;;;;;;;;;3.80;87.35;100238.31;105558;1285;71458;-81
2023/02/02 09:23:58;;;;;;;;;;;;;;;3.83;87.27;100243.28;105512;1285;72815;-81
2023/02/02 09:26:44;;;;;;;;;;;;;;;3.87;87.32;100249.95;105496;1285;61795;-81
2023/02/02 09:29:30;;;;;;;;;;;;;;;3.92;87.25;100262.93;98259;1285;10002588;-81
2023/02/02 09:32:16;;;;;;;;;;;;;;;3.99;87.23;100261.44;105665;1285;67219;-81
2023/02/02 09:35:03;;;;;;;;;;;;;;;3.98;87.07;100267.58;105427;1285;71116;-81
2023/02/02 09:37:49;;;;;;;;;;;;;;;3.98;87.13;100277.12;106143;1285;60817;-80
2023/02/02 09:40:36;;;;;;;;;;;;;;;4.03;87.25;100281.23;105449;1285;61981;-80
2023/02/02 09:43:55;;;;;;;;;;;;;;;4.10;87.24;100284.69;105573;1285;74311;-81
2023/02/02 09:46:43;;;;;;;;;;;;;;;4.21;87.10;100293.41;105081;1290;67505;-80
2023/02/02 09:49:56;;;;;;;;;;;;;;;4.21;87.06;100300.23;105045;1291;72525;-80
2023/02/02 09:52:45;;;;;;;;;;;;;;;4.20;87.09;100306.03;105102;1289;61320;-80
2023/02/02 09:55:31;;;;;;;;;;;;;;;4.16;87.01;100310.29;105040;1291;60820;-81
2023/02/02 09:58:35;;;;;;;;;;;;;;;4.15;87.08;100312.70;105065;1291;73035;-81
2023/02/02 10:01:33;;;;;;;;;;;;;;;4.15;87.11;100308.08;105118;1290;67280;-80
2023/02/02 10:04:42;;;;;;;;;;;;;;;4.11;86.96;100312.33;104974;1291;71314;-80
2023/02/02 10:07:34;;;;;;;;;;;;;;;4.13;87.00;100320.52;104375;1299;60541;-80
2023/02/02 10:10:25;;;;;;;;;;;;;;;4.18;87.07;100323.77;104376;1300;60232;-80
2023/02/02 10:13:16;;;;;;;;;;;;;;;4.18;86.93;100330.41;104367;1300;75282;-80
2023/02/02 10:16:11;;;;;;;;;;;;;;;4.19;86.92;100333.66;104386;1299;67462;-81
2023/02/02 10:19:04;;;;;;;;;;;;;;;4.18;86.92;100337.41;104621;1299;70282;-81
2023/02/02 10:21:53;;;;;;;;;;;;;;;4.12;86.82;100342.88;104436;1294;62082;-81
2023/02/02 10:24:39;;;;;;;;;;;;;;;4.11;86.75;100349.00;104717;1294;64110;-81
2023/02/02 10:27:47;;;;;;;;;;;;;;;4.16;86.82;100347.82;104819;1293;73198;-80
2023/02/02 10:30:53;;;;;;;;;;;;;;;4.19;86.85;100351.91;104790;1294;66532;-80
2023/02/02 10:33:40;;;;;;;;;;;;;;;4.20;86.77;100360.96;104819;1293;70203;-81
2023/02/02 10:36:36;;;;;;;;;;;;;;;4.23;86.81;100364.22;104739;1296;62067;-80
2023/02/02 10:39:42;;;;;;;;;;;;;;;4.26;86.76;100369.19;104630;1293;61944;-80
2023/02/02 10:42:37;;;;;;;;;;;;;;;4.28;86.64;100370.90;104730;1296;74178;-80
2023/02/02 10:45:23;;;;;;;;;;;;;;;4.31;86.72;100377.91;105384;1286;67416;-81
2023/02/02 10:48:14;;;;;;;;;;;;;;;4.29;86.53;100385.58;105432;1285;72208;-80
2023/02/02 10:51:09;;;;;;;;;;;;;;;4.26;86.55;100394.09;105363;1287;60358;-80
2023/02/02 10:53:57;;;;;;;;;;;;;;;4.23;86.57;100399.88;105389;1285;61979;-81
2023/02/02 10:56:51;;;;;;;;;;;;;;;4.24;86.67;100399.89;105364;1285;75343;-82
2023/02/02 10:59:57;;;;;;;;;;;;;;;4.23;86.51;100404.48;105559;1286;71182;-82
2023/02/02 11:02:43;;;;;;;;;;;;;;;4.24;86.60;100411.84;105314;1291;71383;-82
2023/02/02 11:08:40;;;;;;;;;;;;;;;4.27;86.43;100419.18;105573;1287;59369;-82
2023/02/02 11:11:41;;;;;;;;;;;;;;;4.35;86.59;100429.64;105416;1286;76001;-82
2023/02/02 11:14:29;;;;;;;;;;;;;;;4.43;86.53;100431.05;105389;1285;67430;-82
2023/02/02 11:17:20;;;;;;;;;;;;;;;4.50;86.51;100433.83;105380;1285;71259;-83
2023/02/02 11:20:21;;;;;;;;;;;;;;;4.54;86.35;100434.54;105570;1285;61910;-82
2023/02/02 11:23:15;;;;;;;;;;;;;;;4.52;86.13;100434.02;105494;1285;62000;-82
2023/02/02 11:26:04;;;;;;;;;;;;;;;4.49;86.18;100439.30;105368;1285;76879;-82
2023/02/02 11:28:52;;;;;;;;;;;;;;;4.49;86.13;100443.04;105334;1286;68774;-82
2023/02/02 11:31:38;;;;;;;;;;;;;;;4.45;86.18;100446.43;105382;1289;71332;-82
2023/02/02 11:34:27;;;;;;;;;;;;;;;4.44;86.13;100453.59;105472;1285;62045;-83
2023/02/02 11:37:20;;;;;;;;;;;;;;;4.41;86.08;100457.33;105807;1286;62062;-82
2023/02/02 11:40:30;;;;;;;;;;;;;;;4.42;86.18;100462.29;105402;1285;74097;-82
2023/02/02 11:43:18;;;;;;;;;;;;;;;4.50;86.14;100464.73;105526;1285;70013;-82
2023/02/02 11:46:06;;;;;;;;;;;;;;;4.55;86.02;100468.86;105490;1285;74115;-82
2023/02/02 11:48:55;;;;;;;;;;;;;;;4.57;85.88;100470.75;105369;1288;60364;-82
2023/02/02 11:51:43;;;;;;;;;;;;;;;4.50;85.63;100472.06;105628;1289;60214;-82
2023/02/02 11:54:31;;;;;;;;;;;;;;;4.41;85.52;100480.02;105434;1285;75977;-82
2023/02/02 11:57:23;;;;;;;;;;;;;;;4.32;85.67;100481.33;105505;1284;67179;-82
2023/02/02 12:00:09;;;;;;;;;;;;;;;4.27;85.55;100488.29;105405;1285;71468;-82
2023/02/02 12:02:57;;;;;;;;;;;;;;;4.22;85.68;100489.77;105532;1285;61937;-82
2023/02/02 12:05:48;;;;;;;;;;;;;;;4.18;85.67;100485.66;98138;1286;5003668;-82
2023/02/02 12:08:34;;;;;;;;;;;;;;;4.16;85.60;100489.58;105452;1285;74167;-82
2023/02/02 12:11:27;;;;;;;;;;;;;;;4.15;85.67;100491.46;105512;1285;66865;-82
2023/02/02 12:14:22;;;;;;;;;;;;;;;4.14;85.59;100496.73;105378;1286;71208;-82
2023/02/02 12:17:26;;;;;;;;;;;;;;;4.13;85.60;100499.64;105613;1285;62014;-82
2023/02/02 12:20:13;;;;;;;;;;;;;;;4.12;85.51;100497.91;105521;1290;61840;-82
2023/02/02 12:23:12;;;;;;;;;;;;;;;4.12;85.54;100507.48;105653;1289;74659;-82
2023/02/02 12:26:21;;;;;;;;;;;;;;;4.19;85.56;100514.67;105593;1285;69953;-82
2023/02/02 12:29:17;;;;;;;;;;;;;;;4.22;85.31;100512.47;105077;1291;71723;-82
2023/02/02 12:32:37;;;;;;;;;;;;;;;4.21;85.25;100517.58;104953;1292;61822;-82
2023/02/02 12:35:36;;;;;;;;;;;;;;;4.21;85.34;100525.77;104418;1299;62009;-82
2023/02/02 12:38:35;;;;;;;;;;;;;;;4.18;85.18;100533.77;104474;1300;78292;-82
2023/02/02 12:41:40;;;;;;;;;;;;;;;4.21;85.26;100539.09;104417;1298;67422;-82
2023/02/02 12:44:44;;;;;;;;;;;;;;;4.32;85.27;100533.38;104405;1299;74103;-82
2023/02/02 12:47:35;;;;;;;;;;;;;;;4.36;84.72;100536.98;104430;1301;61921;-81
2023/02/02 12:50:33;;;;;;;;;;;;;;;4.33;84.97;100547.38;104439;1298;62044;-81
2023/02/02 12:53:28;;;;;;;;;;;;;;;4.27;84.91;100551.76;104444;1299;75789;-82
2023/02/02 12:56:21;;;;;;;;;;;;;;;4.18;84.77;100560.73;104442;1299;67431;-82
2023/02/02 12:59:11;;;;;;;;;;;;;;;4.10;84.26;100571.08;104424;1299;72376;-80
2023/02/02 13:02:18;;;;;;;;;;;;;;;4.01;84.68;100572.01;104425;1299;62002;-81
2023/02/02 13:05:27;;;;;;;;;;;;;;;3.93;84.62;100580.80;104060;1305;60574;-80
2023/02/02 13:08:20;;;;;;;;;;;;;;;3.88;84.60;100582.96;103961;1304;74117;-80
2023/02/02 13:11:28;;;;;;;;;;;;;;;3.87;84.68;100590.29;104109;1302;67445;-81
2023/02/02 13:14:26;;;;;;;;;;;;;;;3.87;84.62;100596.61;104352;1298;72538;-80
2023/02/02 13:17:16;;;;;;;;;;;;;;;3.87;84.70;100602.22;104314;1298;62097;-80
2023/02/02 13:20:06;;;;;;;;;;;;;;;3.87;84.73;100603.92;104352;1299;59929;-80
2023/02/02 13:22:56;;;;;;;;;;;;;;;3.88;84.66;100602.06;104342;1300;76175;-80
2023/02/02 13:25:54;;;;;;;;;;;;;;;3.90;84.66;100612.31;104289;1299;67303;-80
2023/02/02 13:28:44;;;;;;;;;;;;;;;3.91;84.69;100623.92;104164;1304;72812;-80
2023/02/02 13:31:35;;;;;;;;;;;;;;;3.93;84.59;100630.94;104248;1299;62036;-80
2023/02/02 13:34:25;;;;;;;;;;;;;;;3.93;84.73;100644.42;104365;1299;62094;-81
2023/02/02 13:37:36;;;;;;;;;;;;;;;3.91;84.63;100650.70;104332;1298;73938;-80
2023/02/02 13:40:25;;;;;;;;;;;;;;;3.85;84.62;100652.85;104224;1303;68441;-81
2023/02/02 13:43:11;;;;;;;;;;;;;;;3.81;84.64;100653.48;104546;1298;71091;-80
2023/02/02 13:45:57;;;;;;;;;;;;;;;3.75;84.67;100663.81;104987;1291;61961;-80
2023/02/02 13:48:44;;;;;;;;;;;;;;;3.70;84.61;100667.48;105117;1291;61955;-80
2023/02/02 13:51:49;;;;;;;;;;;;;;;3.67;84.64;100683.14;105128;1290;74759;-80
2023/02/02 13:54:58;;;;;;;;;;;;;;;3.64;84.66;100683.95;105065;1292;67351;-80
2023/02/02 13:57:47;;;;;;;;;;;;;;;3.61;84.62;100695.52;104483;1299;71276;-81
2023/02/02 14:00:36;;;;;;;;;;;;;;;3.57;84.46;100700.59;104460;1302;62723;-80
2023/02/02 14:03:37;;;;;;;;;;;;;;;3.54;84.66;100712.48;104510;1296;61871;-80
2023/02/02 14:06:24;;;;;;;;;;;;;;;3.54;84.76;100721.16;104806;1297;74263;-80
2023/02/02 14:09:16;;;;;;;;;;;;;;;3.55;84.73;100724.41;104510;1297;70030;-80
2023/02/02 14:12:05;;;;;;;;;;;;;;;3.54;84.65;100724.40;104421;1297;72185;-80
2023/02/02 14:14:51;;;;;;;;;;;;;;;3.48;84.60;100731.48;104478;1297;62209;-80
2023/02/02 14:17:38;;;;;;;;;;;;;;;3.46;84.60;100741.49;104601;1294;61496;-79
2023/02/02 14:20:41;;;;;;;;;;;;;;;3.42;84.55;100746.72;104766;1294;75405;-80
2023/02/02 14:23:46;;;;;;;;;;;;;;;3.35;84.52;100752.41;104840;1295;66396;-80
2023/02/02 14:26:39;;;;;;;;;;;;;;;3.34;84.71;100764.66;104765;1297;74085;-80
2023/02/02 14:29:51;;;;;;;;;;;;;;;3.35;84.81;100780.86;104762;1296;62054;-80
2023/02/02 14:32:41;;;;;;;;;;;;;;;3.33;84.68;100797.70;104333;1300;62124;-80
2023/02/02 14:35:28;;;;;;;;;;;;;;;3.24;84.54;100815.08;104651;1293;74222;-81
2023/02/02 14:38:23;;;;;;;;;;;;;;;3.14;84.66;100820.54;104887;1293;67201;-80
2023/02/02 14:44:36;;;;;;;;;;;;;;;3.08;84.76;100834.42;104321;1299;60255;-80
2023/02/02 14:47:49;;;;;;;;;;;;;;;3.03;84.81;100839.45;104377;1303;63015;-80
2023/02/02 14:50:38;;;;;;;;;;;;;;;3.00;84.85;100847.23;103962;1299;261032;-81
2023/02/02 14:53:29;;;;;;;;;;;;;;;2.96;84.81;100854.47;104251;1305;68604;-81
2023/02/02 14:56:16;;;;;;;;;;;;;;;2.95;84.89;100865.85;104318;1303;74509;-80